Time;durP1;ratioP1;P1;durP2;ratioP2;P2;SDS_P1;SDS_P2;PMS_P1;PMS_P2;Temp;Humidity;BMP_temperature;BMP_pressure;BME280_temperature;BME280_humidity;BME280_pressure;Samples;Min_cycle;Max_cycle;Signal;HPM_P1;HPM_P2
2021/03/12 00:02:46;;;;;;;17.70;10.43;;;;;;;1.82;100.00;98355.84;6119473;29;20223;-73
2021/03/12 00:06:02;;;;;;;17.47;10.77;;;;;;;1.69;100.00;98346.03;6119769;29;20430;-72
2021/03/12 00:09:05;;;;;;;17.50;10.83;;;;;;;1.82;100.00;98339.72;6120582;29;20192;-73
2021/03/12 00:12:19;;;;;;;17.77;11.60;;;;;;;1.86;100.00;98336.34;6119525;29;20381;-72
2021/03/12 00:15:23;;;;;;;19.27;12.33;;;;;;;1.82;100.00;98334.34;6120408;29;20258;-73
2021/03/12 00:18:34;;;;;;;22.90;12.50;;;;;;;1.85;100.00;98331.19;6119684;29;20194;-73
2021/03/12 00:21:38;;;;;;;21.00;12.83;;;;;;;2.03;100.00;98325.81;6120466;29;20231;-73
2021/03/12 00:24:41;;;;;;;21.87;13.63;;;;;;;2.03;100.00;98316.97;6120228;29;20192;-73
2021/03/12 00:27:45;;;;;;;21.33;13.63;;;;;;;2.05;100.00;98318.38;6119345;29;20206;-73
2021/03/12 00:30:49;;;;;;;29.10;15.13;;;;;;;1.99;100.00;98319.25;6102248;29;20204;-73
2021/03/12 00:33:53;;;;;;;24.73;15.57;;;;;;;1.99;100.00;98308.50;6120387;29;20200;-73
2021/03/12 00:36:57;;;;;;;29.40;15.70;;;;;;;1.96;100.00;98295.50;6120296;29;20216;-73
2021/03/12 00:40:01;;;;;;;31.67;16.43;;;;;;;1.94;100.00;98294.09;6117667;29;20206;-73
2021/03/12 00:43:14;;;;;;;30.20;16.47;;;;;;;2.00;100.00;98288.66;6119827;29;20280;-73
2021/03/12 00:46:20;;;;;;;39.63;17.97;;;;;;;2.04;100.00;98284.47;6103517;29;20189;-73
2021/03/12 00:49:23;;;;;;;35.60;18.77;;;;;;;2.10;100.00;98288.94;6101967;29;20214;-73
2021/03/12 00:52:30;;;;;;;40.73;19.43;;;;;;;2.16;100.00;98277.28;6118058;29;20519;-73
2021/03/12 00:55:36;;;;;;;36.57;18.57;;;;;;;2.18;100.00;98269.81;6118544;29;20510;-73
2021/03/12 00:58:41;;;;;;;40.43;19.13;;;;;;;2.26;100.00;98274.06;6102079;29;20411;-73
2021/03/12 01:01:47;;;;;;;39.40;18.93;;;;;;;2.27;100.00;98273.84;6102205;29;20256;-73
2021/03/12 01:04:51;;;;;;;41.63;20.03;;;;;;;2.26;100.00;98264.13;6109929;29;20444;-73
2021/03/12 01:07:56;;;;;;;38.87;18.90;;;;;;;2.23;100.00;98267.28;6079018;29;20208;-73
2021/03/12 01:11:05;;;;;;;41.30;18.60;;;;;;;2.31;100.00;98264.25;6079481;29;20206;-73
2021/03/12 01:14:15;;;;;;;39.17;18.87;;;;;;;2.34;100.00;98268.34;6079644;29;20194;-73
2021/03/12 01:17:23;;;;;;;37.47;17.83;;;;;;;2.37;100.00;98252.59;6078808;29;20223;-73
2021/03/12 01:20:31;;;;;;;37.03;18.27;;;;;;;2.30;100.00;98251.88;6077618;29;20205;-73
2021/03/12 01:23:35;;;;;;;35.67;18.27;;;;;;;2.34;100.00;98236.91;6070897;29;20531;-73
2021/03/12 01:26:39;;;;;;;33.77;18.53;;;;;;;2.39;100.00;98233.53;6078796;29;20246;-73
2021/03/12 01:29:48;;;;;;;36.40;18.47;;;;;;;2.47;100.00;98231.34;6095707;29;20191;-73
2021/03/12 01:32:59;;;;;;;37.67;19.23;;;;;;;2.35;100.00;98225.09;6078593;29;20213;-73
2021/03/12 01:36:05;;;;;;;42.60;19.50;;;;;;;2.47;100.00;98211.69;6078764;29;20209;-73
2021/03/12 01:39:22;;;;;;;38.93;17.87;;;;;;;2.50;100.00;98212.06;6078240;29;20273;-73
2021/03/12 01:42:28;;;;;;;36.20;18.47;;;;;;;2.41;100.00;98212.63;6092733;29;20234;-73
2021/03/12 01:45:39;;;;;;;41.10;19.73;;;;;;;2.49;100.00;98207.72;6078365;29;20248;-73
2021/03/12 01:48:43;;;;;;;41.63;19.37;;;;;;;2.53;100.00;98214.28;6095227;29;20191;-73
2021/03/12 01:51:46;;;;;;;44.33;20.90;;;;;;;2.47;100.00;98209.81;6095096;29;20198;-73
2021/03/12 01:54:52;;;;;;;47.93;20.73;;;;;;;2.51;100.00;98204.81;6077833;29;20209;-73
2021/03/12 01:57:56;;;;;;;45.40;21.40;;;;;;;2.51;100.00;98205.63;6078159;29;20241;-73
2021/03/12 02:01:12;;;;;;;42.50;20.03;;;;;;;2.51;100.00;98194.88;6078221;29;20259;-73
2021/03/12 02:04:37;;;;;;;45.57;20.63;;;;;;;2.59;100.00;98188.34;6071768;29;20271;-74
2021/03/12 02:07:49;;;;;;;48.93;21.23;;;;;;;2.50;100.00;98198.59;6141673;29;20215;-73
2021/03/12 02:11:03;;;;;;;54.53;22.47;;;;;;;2.48;100.00;98189.94;6124330;29;20495;-73
2021/03/12 02:14:11;;;;;;;56.23;22.93;;;;;;;2.58;100.00;98188.56;6124566;29;20548;-73
2021/03/12 02:17:24;;;;;;;54.97;22.37;;;;;;;2.67;100.00;98184.50;6124831;29;20213;-73
2021/03/12 02:20:36;;;;;;;56.83;23.53;;;;;;;2.64;100.00;98175.00;6124197;29;20271;-73
2021/03/12 02:23:56;;;;;;;52.87;22.37;;;;;;;2.63;100.00;98175.22;6123534;29;20230;-73
2021/03/12 02:27:07;;;;;;;50.73;21.13;;;;;;;2.69;100.00;98185.09;6124436;29;20209;-73
2021/03/12 02:30:20;;;;;;;44.60;20.27;;;;;;;2.71;100.00;98166.81;6125567;29;20196;-75
2021/03/12 02:33:33;;;;;;;48.97;20.90;;;;;;;2.60;100.00;98175.69;6125734;29;20225;-74
2021/03/12 02:36:44;;;;;;;48.67;22.07;;;;;;;2.66;100.00;98166.69;6124539;29;20250;-74
2021/03/12 02:39:51;;;;;;;50.10;22.13;;;;;;;2.59;100.00;98158.75;6124203;29;20235;-74
2021/03/12 02:42:56;;;;;;;45.17;21.10;;;;;;;2.68;100.00;98162.72;6129483;29;20291;-74
2021/03/12 02:46:01;;;;;;;47.10;21.43;;;;;;;2.64;100.00;98145.41;6128610;29;20513;-74
2021/03/12 02:49:10;;;;;;;44.03;20.90;;;;;;;2.76;100.00;98153.50;6128805;29;20206;-74
2021/03/12 02:52:15;;;;;;;50.47;21.43;;;;;;;2.75;100.00;98151.88;6146668;29;20199;-74
2021/03/12 02:55:21;;;;;;;48.60;22.03;;;;;;;2.78;100.00;98157.59;6144678;29;20204;-74
2021/03/12 02:58:35;;;;;;;47.83;21.67;;;;;;;2.74;100.00;98151.03;6128730;29;20237;-74
2021/03/12 03:01:40;;;;;;;55.20;21.53;;;;;;;2.81;100.00;98153.59;6129022;29;20202;-74
2021/03/12 03:04:56;;;;;;;52.13;21.17;;;;;;;2.81;100.00;98150.91;6145569;29;20243;-74
2021/03/12 03:08:08;;;;;;;52.30;22.53;;;;;;;2.76;100.00;98153.50;6145953;29;20259;-74
2021/03/12 03:11:16;;;;;;;50.07;20.80;;;;;;;2.86;100.00;98159.13;6145931;29;20189;-74
2021/03/12 03:14:34;;;;;;;53.67;21.70;;;;;;;2.86;100.00;98164.50;6127717;29;20431;-74
2021/03/12 03:17:40;;;;;;;51.60;21.63;;;;;;;2.88;100.00;98146.22;6128262;29;20212;-74
2021/03/12 03:20:45;;;;;;;49.57;20.73;;;;;;;2.70;100.00;98143.63;6128531;29;20227;-74
2021/03/12 03:23:52;;;;;;;50.63;21.73;;;;;;;2.88;100.00;98151.63;6143480;29;20469;-74
2021/03/12 03:26:57;;;;;;;49.30;21.97;;;;;;;2.70;100.00;98149.00;6127820;29;20206;-74
2021/03/12 03:30:04;;;;;;;51.67;21.67;;;;;;;2.88;100.00;98135.47;6127838;29;20214;-74
2021/03/12 03:33:15;;;;;;;49.20;21.40;;;;;;;2.87;100.00;98133.84;6129587;29;20240;-74
2021/03/12 03:36:20;;;;;;;48.93;21.20;;;;;;;2.90;100.00;98149.53;6145243;29;20195;-74
2021/03/12 03:39:24;;;;;;;42.10;19.70;;;;;;;2.92;100.00;98136.66;6127586;29;20204;-74
2021/03/12 03:42:29;;;;;;;51.10;20.53;;;;;;;2.90;100.00;98128.00;6127986;29;20213;-74
2021/03/12 03:45:35;;;;;;;49.20;19.73;;;;;;;2.98;100.00;98130.31;6127117;29;20213;-74
2021/03/12 03:48:57;;;;;;;44.80;19.70;;;;;;;2.99;100.00;98121.19;6127446;29;20242;-74
2021/03/12 03:52:17;;;;;;;47.97;20.83;;;;;;;2.99;100.00;98132.78;6125863;29;20511;-74
2021/03/12 03:55:34;;;;;;;42.90;19.23;;;;;;;2.92;100.00;98115.94;6127936;29;20250;-74
2021/03/12 03:58:40;;;;;;;43.13;19.23;;;;;;;2.96;100.00;98110.88;6127197;29;20497;-74
2021/03/12 04:01:47;;;;;;;50.33;21.07;;;;;;;2.92;100.00;98120.50;6126746;29;20477;-74
2021/03/12 04:05:13;;;;;;;41.87;18.73;;;;;;;2.94;100.00;98102.22;6129484;29;20239;-74
2021/03/12 04:08:26;;;;;;;45.47;19.20;;;;;;;3.02;100.00;98128.81;6127015;29;20237;-74
2021/03/12 04:11:33;;;;;;;45.97;18.10;;;;;;;3.06;100.00;98127.28;6126627;29;20243;-72
2021/03/12 04:14:38;;;;;;;44.50;17.50;;;;;;;3.13;100.00;98119.91;6126484;29;20217;-73
2021/03/12 04:17:43;;;;;;;41.90;17.70;;;;;;;3.24;100.00;98119.06;6127191;29;20250;-73
2021/03/12 04:20:48;;;;;;;39.47;18.00;;;;;;;3.13;100.00;98122.63;6143978;29;20191;-72
2021/03/12 04:23:52;;;;;;;42.13;18.83;;;;;;;2.93;100.00;98120.25;6125883;29;20333;-73
2021/03/12 04:26:57;;;;;;;43.77;18.90;;;;;;;3.06;100.00;98113.81;6126110;29;20237;-73
2021/03/12 04:30:06;;;;;;;40.60;17.07;;;;;;;3.14;100.00;98118.84;6127172;29;20255;-73
2021/03/12 04:33:19;;;;;;;38.00;17.83;;;;;;;3.05;100.00;98126.47;6127781;29;20226;-73
2021/03/12 04:36:28;;;;;;;39.60;17.87;;;;;;;3.08;100.00;98114.41;6126092;29;20207;-73
2021/03/12 04:39:34;;;;;;;38.57;17.20;;;;;;;3.05;100.00;98112.19;6125934;29;20285;-73
2021/03/12 04:42:38;;;;;;;42.67;18.17;;;;;;;3.10;100.00;98123.06;6126701;29;20207;-73
2021/03/12 04:45:43;;;;;;;43.87;17.77;;;;;;;3.07;100.00;98128.94;6142315;29;20547;-73
2021/03/12 04:48:48;;;;;;;39.73;17.40;;;;;;;3.03;100.00;98122.38;6125917;29;20294;-74
2021/03/12 04:51:56;;;;;;;40.17;17.13;;;;;;;3.13;100.00;98117.22;6125876;29;20239;-74
2021/03/12 04:55:00;;;;;;;40.87;17.67;;;;;;;3.10;100.00;98118.53;6126008;29;20214;-74
2021/03/12 04:58:06;;;;;;;45.63;18.07;;;;;;;3.13;100.00;98118.03;6126695;29;20213;-74
2021/03/12 05:01:13;;;;;;;40.90;17.23;;;;;;;3.16;100.00;98122.13;6126863;29;20192;-74
2021/03/12 05:04:20;;;;;;;38.87;17.50;;;;;;;3.03;100.00;98117.00;6125249;29;20573;-75
2021/03/12 05:07:30;;;;;;;42.07;17.40;;;;;;;3.07;100.00;98118.16;6126802;29;20192;-74
2021/03/12 05:10:57;;;;;;;40.23;17.33;;;;;;;3.04;100.00;98115.94;6125930;29;20213;-74
2021/03/12 05:14:01;;;;;;;36.93;16.57;;;;;;;3.12;100.00;98120.97;6141518;29;20247;-74
2021/03/12 05:17:15;;;;;;;38.23;16.50;;;;;;;3.18;100.00;98115.44;6126027;29;20191;-74
2021/03/12 05:20:20;;;;;;;37.80;16.20;;;;;;;3.15;100.00;98113.25;6124999;29;20205;-74
2021/03/12 05:23:24;;;;;;;37.63;17.17;;;;;;;3.09;100.00;98116.03;6141805;29;20241;-74
2021/03/12 05:26:30;;;;;;;40.87;16.53;;;;;;;3.15;100.00;98112.41;6125971;29;20212;-74
2021/03/12 05:29:39;;;;;;;34.10;15.10;;;;;;;3.18;100.00;98120.03;6125361;29;20477;-75
2021/03/12 05:32:44;;;;;;;35.60;16.03;;;;;;;3.13;100.00;98106.44;6142845;29;20267;-74
2021/03/12 05:35:49;;;;;;;40.53;16.20;;;;;;;3.18;100.00;98109.25;6125651;29;20210;-74
2021/03/12 05:38:52;;;;;;;39.97;15.83;;;;;;;3.22;100.00;98115.81;6124117;29;20375;-75
2021/03/12 05:41:56;;;;;;;29.50;14.40;;;;;;;3.33;100.00;98112.28;6142570;29;20226;-74
2021/03/12 05:45:12;;;;;;;33.83;14.63;;;;;;;3.27;100.00;98129.38;6125814;29;20215;-74
2021/03/12 05:48:26;;;;;;;33.37;15.00;;;;;;;3.24;100.00;98119.06;6124947;29;20213;-74
2021/03/12 05:51:34;;;;;;;39.47;16.00;;;;;;;3.14;100.00;98116.97;6142164;29;20210;-74
2021/03/12 05:54:38;;;;;;;37.10;15.53;;;;;;;3.17;100.00;98118.38;6125164;29;20242;-75
2021/03/12 05:57:42;;;;;;;33.17;14.67;;;;;;;3.17;100.00;98113.00;6124170;29;20215;-75
2021/03/12 06:00:59;;;;;;;39.73;15.87;;;;;;;3.06;100.00;98111.13;6127420;29;20214;-75
2021/03/12 06:04:14;;;;;;;28.43;13.93;;;;;;;3.28;100.00;98114.03;6126600;29;20231;-75
2021/03/12 06:07:23;;;;;;;30.90;13.03;;;;;;;3.28;100.00;98114.03;6125385;29;20257;-74
2021/03/12 06:10:26;;;;;;;33.47;13.60;;;;;;;3.35;100.00;98122.81;6141804;29;20198;-74
2021/03/12 06:13:47;;;;;;;30.73;12.47;;;;;;;3.43;100.00;98123.28;6124180;29;20534;-74
2021/03/12 06:16:52;;;;;;;25.13;12.97;;;;;;;3.48;100.00;98120.69;6123292;29;20238;-74
2021/03/12 06:20:19;;;;;;;27.30;12.90;;;;;;;3.58;100.00;98120.09;6125575;29;20192;-74
2021/03/12 06:23:35;;;;;;;23.43;12.07;;;;;;;3.66;100.00;98134.03;6124132;29;20207;-74
2021/03/12 06:26:46;;;;;;;25.20;12.47;;;;;;;3.53;100.00;98134.28;6124179;29;20206;-74
2021/03/12 06:30:01;;;;;;;25.30;11.47;;;;;;;3.52;100.00;98138.03;6140072;29;20207;-73
2021/03/12 06:33:29;;;;;;;26.63;11.63;;;;;;;3.54;100.00;98135.09;6141740;29;20191;-73
2021/03/12 06:36:45;;;;;;;22.83;11.73;;;;;;;3.55;100.00;98142.94;6123989;29;20274;-74
2021/03/12 06:39:56;;;;;;;23.77;11.27;;;;;;;3.61;100.00;98142.00;6123963;29;20279;-74
2021/03/12 06:43:12;;;;;;;22.93;11.53;;;;;;;3.55;100.00;98142.94;6140850;29;20239;-73
2021/03/12 06:46:16;;;;;;;21.93;10.77;;;;;;;3.63;100.00;98152.53;6139557;29;20249;-74
2021/03/12 06:49:32;;;;;;;19.47;11.00;;;;;;;3.76;100.00;98150.41;6124047;29;20240;-73
2021/03/12 06:52:52;;;;;;;22.50;10.47;;;;;;;3.86;99.74;98146.28;6123979;29;20236;-74
2021/03/12 06:56:14;;;;;;;18.03;10.37;;;;;;;3.62;99.36;98151.72;6123821;29;20211;-74
2021/03/12 06:59:31;;;;;;;19.53;10.40;;;;;;;3.78;99.99;98150.97;6123851;29;20251;-73
2021/03/12 07:02:42;;;;;;;16.47;9.43;;;;;;;3.76;99.57;98155.81;6122829;29;20387;-74
2021/03/12 07:06:04;;;;;;;17.13;9.47;;;;;;;3.83;99.39;98160.25;6116350;29;20315;-75
2021/03/12 07:09:10;;;;;;;14.50;8.77;;;;;;;3.79;99.26;98162.59;6116412;29;20207;-74
2021/03/12 07:12:47;;;;;;;14.27;8.90;;;;;;;3.89;99.44;98170.06;6117050;29;20211;-74
2021/03/12 07:15:57;;;;;;;16.53;8.37;;;;;;;3.83;99.56;98171.03;6115883;29;20215;-73
2021/03/12 07:19:15;;;;;;;13.73;8.43;;;;;;;3.84;98.95;98175.34;6115193;29;20208;-74
2021/03/12 07:22:20;;;;;;;12.53;8.37;;;;;;;3.91;99.91;98178.72;6115970;29;20212;-74
2021/03/12 07:25:30;;;;;;;10.87;7.60;;;;;;;4.00;97.81;98188.09;6115489;29;20228;-73
2021/03/12 07:28:42;;;;;;;13.90;8.17;;;;;;;3.88;99.17;98185.41;6120062;29;20252;-73
2021/03/12 07:32:14;;;;;;;16.43;7.50;;;;;;;3.91;99.55;98193.03;6108385;29;20208;-73
2021/03/12 07:35:18;;;;;;;10.97;7.33;;;;;;;4.01;99.01;98200.50;6119640;29;20245;-73
2021/03/12 07:38:43;;;;;;;9.97;6.70;;;;;;;3.94;98.02;98194.44;6120861;29;20212;-73
2021/03/12 07:41:55;;;;;;;7.50;5.80;;;;;;;3.68;99.88;98185.81;6119897;29;20208;-73
2021/03/12 07:45:48;;;;;;;9.57;5.83;;;;;;;3.84;100.00;98199.63;6085764;29;20445;-73
2021/03/12 07:48:51;;;;;;;7.07;5.57;;;;;;;3.85;100.00;98198.59;6119998;29;20551;-73
2021/03/12 07:52:10;;;;;;;5.97;5.03;;;;;;;3.88;99.45;98192.72;6120290;29;20196;-72
2021/03/12 07:55:48;;;;;;;5.03;4.60;;;;;;;3.88;99.38;98200.81;6119700;29;20314;-72
2021/03/12 07:59:09;;;;;;;6.03;5.17;;;;;;;3.80;99.93;98199.28;6119105;29;20219;-73
2021/03/12 08:03:00;;;;;;;4.90;4.50;;;;;;;3.85;100.00;98214.75;6119952;29;20193;-73
2021/03/12 08:06:40;;;;;;;8.83;4.73;;;;;;;3.84;100.00;98215.81;6137193;29;20566;-74
2021/03/12 08:09:45;;;;;;;5.73;3.90;;;;;;;3.75;100.00;98208.06;6143973;29;20189;-73
2021/03/12 08:13:27;;;;;;;4.50;4.20;;;;;;;3.79;100.00;98209.25;6128077;29;20197;-74
2021/03/12 08:17:20;;;;;;;4.30;4.00;;;;;;;3.88;100.00;98222.38;6126877;29;20504;-73
2021/03/12 08:20:44;;;;;;;4.57;4.27;;;;;;;3.83;100.00;98224.97;6142789;29;20498;-74
2021/03/12 08:24:43;;;;;;;6.17;3.80;;;;;;;3.89;99.31;98229.41;6142481;29;20227;-74
2021/03/12 08:27:49;;;;;;;3.93;3.77;;;;;;;3.62;100.00;98219.09;6141718;29;20463;-73
2021/03/12 08:31:01;;;;;;;6.53;3.90;;;;;;;3.85;100.00;98239.03;6143936;29;20192;-74
2021/03/12 08:34:38;;;;;;;6.40;3.33;;;;;;;3.90;100.00;98233.75;6126286;29;20390;-74
2021/03/12 08:38:02;;;;;;;3.50;3.30;;;;;;;3.90;99.68;98242.66;6143139;29;20259;-73
2021/03/12 08:41:41;;;;;;;3.03;2.93;;;;;;;3.97;99.30;98242.53;6144072;29;20274;-74
2021/03/12 08:45:05;;;;;;;2.90;2.80;;;;;;;3.90;100.00;98242.66;6125865;29;20226;-73
2021/03/12 08:48:36;;;;;;;2.80;2.70;;;;;;;3.99;99.98;98245.81;6125822;29;20200;-74
2021/03/12 08:51:40;;;;;;;2.70;2.60;;;;;;;4.03;98.93;98242.38;6126257;29;20211;-73
2021/03/12 08:55:15;;;;;;;3.03;2.83;;;;;;;3.89;99.67;98253.69;6132322;29;20256;-72
2021/03/12 08:58:21;;;;;;;4.13;3.00;;;;;;;3.77;100.00;98254.50;6125323;29;20493;-74
2021/03/12 09:01:32;;;;;;;2.67;2.47;;;;;;;3.74;100.00;98260.38;6125673;29;20501;-74
2021/03/12 09:04:44;;;;;;;5.40;2.20;;;;;;;3.99;99.63;98268.22;6126302;29;20250;-74
2021/03/12 09:08:24;;;;;;;2.43;1.70;;;;;;;3.95;99.40;98269.75;6125655;29;20476;-74
2021/03/12 09:12:00;;;;;;;1.77;1.67;;;;;;;3.87;99.02;98270.09;6110781;29;20212;-74
2021/03/12 09:15:24;;;;;;;1.63;1.63;;;;;;;3.91;98.57;98276.66;6142771;29;20200;-74
2021/03/12 09:18:46;;;;;;;2.33;1.50;;;;;;;3.99;98.71;98278.16;6125946;29;20208;-73
2021/03/12 09:22:21;;;;;;;5.63;1.60;;;;;;;3.95;98.69;98293.19;6128977;29;20204;-74
2021/03/12 09:25:29;;;;;;;1.77;1.57;;;;;;;3.97;97.20;98296.47;6140957;29;20287;-74
2021/03/12 09:28:42;;;;;;;1.80;1.53;;;;;;;3.98;97.42;98303.53;6141158;29;20223;-74
2021/03/12 09:31:51;;;;;;;1.50;1.50;;;;;;;3.95;97.28;98301.28;6125803;29;20245;-73
2021/03/12 09:35:15;;;;;;;3.50;1.30;;;;;;;3.97;96.59;98307.25;6125623;29;20274;-73
2021/03/12 09:38:27;;;;;;;1.30;1.30;;;;;;;3.85;97.49;98325.34;6124747;29;20207;-73
2021/03/12 09:41:40;;;;;;;1.10;1.10;;;;;;;3.77;97.97;98321.91;6141153;29;20223;-73
2021/03/12 09:44:46;;;;;;;1.10;1.10;;;;;;;3.83;97.57;98322.06;6141968;29;20219;-73
2021/03/12 09:47:57;;;;;;;1.00;1.00;;;;;;;3.66;97.31;98322.75;6124288;29;20491;-74
2021/03/12 09:51:06;;;;;;;1.20;1.20;;;;;;;3.70;96.42;98333.88;6141202;29;20258;-75
2021/03/12 09:54:16;;;;;;;1.03;1.03;;;;;;;3.68;96.52;98328.72;6140795;29;20207;-74
2021/03/12 09:57:26;;;;;;;1.30;1.30;;;;;;;3.77;96.42;98340.78;6125085;29;20274;-74
2021/03/12 10:00:37;;;;;;;1.30;1.30;;;;;;;3.82;96.38;98344.69;6124163;29;20230;-74
2021/03/12 10:04:23;;;;;;;1.70;1.70;;;;;;;3.72;96.69;98346.06;6139798;29;20506;-74
2021/03/12 10:07:38;;;;;;;1.37;1.27;;;;;;;3.80;96.09;98344.88;6133018;29;20207;-74
2021/03/12 10:10:55;;;;;;;1.10;1.10;;;;;;;3.85;95.38;98352.31;6116621;29;20243;-73
2021/03/12 10:14:31;;;;;;;0.87;0.87;;;;;;;3.80;95.53;98356.50;6132477;29;20207;-73
2021/03/12 10:17:39;;;;;;;1.00;1.00;;;;;;;3.78;95.29;98358.63;6116447;29;20291;-73
2021/03/12 10:20:44;;;;;;;1.10;1.10;;;;;;;3.81;94.87;98362.72;6116563;29;20207;-74
2021/03/12 10:23:50;;;;;;;1.20;1.20;;;;;;;3.84;94.78;98367.66;6118245;29;20194;-74
2021/03/12 10:26:54;;;;;;;1.27;1.13;;;;;;;3.80;94.24;98369.16;6117896;29;20253;-73
2021/03/12 10:30:23;;;;;;;1.17;1.17;;;;;;;3.78;94.92;98380.19;6116082;29;20204;-73
2021/03/12 10:33:36;;;;;;;0.93;0.93;;;;;;;3.71;94.77;98384.88;6118430;29;20192;-74
2021/03/12 10:36:41;;;;;;;1.30;1.20;;;;;;;3.94;94.12;98385.94;6118267;29;20227;-74
2021/03/12 10:40:07;;;;;;;1.30;1.00;;;;;;;3.83;94.32;98387.59;6118141;29;20193;-74
2021/03/12 10:43:17;;;;;;;1.03;0.93;;;;;;;3.73;93.87;98403.50;6116765;29;20314;-73
2021/03/12 10:46:21;;;;;;;1.10;1.00;;;;;;;3.76;95.19;98413.84;6116687;29;20239;-74
2021/03/12 10:49:28;;;;;;;0.90;0.90;;;;;;;3.79;94.08;98395.34;6116598;29;20215;-74
2021/03/12 10:52:33;;;;;;;0.90;0.90;;;;;;;4.00;92.79;98406.59;6116771;29;20262;-74
2021/03/12 10:55:42;;;;;;;0.90;0.90;;;;;;;3.93;93.20;98411.31;6117970;29;20202;-73
2021/03/12 10:58:48;;;;;;;3.33;1.30;;;;;;;3.92;92.86;98415.03;6116729;29;20190;-73
2021/03/12 11:01:57;;;;;;;1.10;1.10;;;;;;;3.99;92.41;98415.75;6119713;29;20190;-74
2021/03/12 11:05:01;;;;;;;1.63;1.00;;;;;;;3.96;93.27;98429.69;6115607;29;20254;-74
2021/03/12 11:08:13;;;;;;;1.10;1.10;;;;;;;4.03;92.50;98425.03;6098705;29;20203;-74
2021/03/12 11:11:21;;;;;;;2.00;1.00;;;;;;;4.01;91.85;98422.56;6098351;29;20231;-74
2021/03/12 11:14:24;;;;;;;1.00;1.00;;;;;;;3.96;92.58;98435.09;6098395;29;20260;-74
2021/03/12 11:17:27;;;;;;;1.53;0.93;;;;;;;3.76;93.58;98436.25;6098001;29;20223;-72
2021/03/12 11:20:45;;;;;;;1.43;1.00;;;;;;;3.93;93.82;98447.16;6098179;29;20192;-74
2021/03/12 11:23:48;;;;;;;1.23;1.17;;;;;;;4.00;92.76;98441.69;6098321;29;20193;-73
2021/03/12 11:26:51;;;;;;;1.03;1.03;;;;;;;4.00;93.21;98452.47;6097802;29;20228;-72
2021/03/12 11:29:54;;;;;;;1.00;1.00;;;;;;;3.91;93.55;98451.16;6098253;29;20197;-73
2021/03/12 11:32:57;;;;;;;0.97;0.97;;;;;;;3.90;93.05;98463.00;6096824;29;20447;-72
2021/03/12 11:36:04;;;;;;;1.00;1.00;;;;;;;4.07;92.54;98463.97;6097721;29;20197;-73
2021/03/12 11:39:08;;;;;;;1.10;1.10;;;;;;;4.09;92.15;98472.66;6098100;29;20193;-73
2021/03/12 11:42:17;;;;;;;1.53;0.90;;;;;;;3.99;92.30;98472.41;6098077;29;20201;-73
2021/03/12 11:45:23;;;;;;;1.10;1.00;;;;;;;4.01;93.07;98486.47;6097820;29;20227;-73
2021/03/12 11:48:26;;;;;;;1.00;1.00;;;;;;;3.91;92.88;98491.59;6097389;29;20193;-73
2021/03/12 11:51:30;;;;;;;1.10;1.10;;;;;;;3.94;92.57;98491.16;6097702;29;20231;-73
2021/03/12 11:54:34;;;;;;;0.90;0.90;;;;;;;3.91;92.56;98491.59;6096528;29;20193;-73
2021/03/12 11:57:38;;;;;;;1.07;1.07;;;;;;;3.96;91.98;98499.84;6096067;29;20247;-73
2021/03/12 12:00:42;;;;;;;1.00;1.00;;;;;;;3.93;92.30;98511.91;6097247;29;20199;-73
2021/03/12 12:03:59;;;;;;;1.07;1.07;;;;;;;3.98;91.72;98516.63;6096350;29;20247;-74
2021/03/12 12:07:08;;;;;;;0.97;0.97;;;;;;;3.95;91.75;98514.41;6097575;29;20242;-73
2021/03/12 12:10:14;;;;;;;1.20;1.07;;;;;;;3.97;91.59;98517.69;6097020;29;20197;-73
2021/03/12 12:13:17;;;;;;;1.20;1.20;;;;;;;3.99;91.41;98526.34;6096508;29;20197;-74
2021/03/12 12:16:20;;;;;;;0.90;0.90;;;;;;;4.03;91.78;98522.16;6096929;29;20220;-73
2021/03/12 12:19:24;;;;;;;0.93;0.93;;;;;;;3.94;90.84;98531.63;6096017;29;20194;-73
2021/03/12 12:22:28;;;;;;;0.87;0.87;;;;;;;4.01;91.17;98525.06;6097043;29;20193;-73
2021/03/12 12:25:32;;;;;;;1.00;1.00;;;;;;;4.03;90.91;98532.94;6096035;29;20221;-73
2021/03/12 12:28:35;;;;;;;1.00;1.00;;;;;;;4.09;90.52;98548.19;6095968;29;20200;-73
2021/03/12 12:31:39;;;;;;;1.30;1.30;;;;;;;3.97;90.46;98550.03;6097011;29;20217;-73
2021/03/12 12:34:44;;;;;;;3.70;0.90;;;;;;;3.94;90.88;98550.50;6095427;29;20193;-74
2021/03/12 12:37:49;;;;;;;0.90;0.90;;;;;;;3.92;90.61;98558.84;6096540;29;20201;-73
2021/03/12 12:40:52;;;;;;;1.10;1.10;;;;;;;3.72;91.10;98552.91;6096431;29;20193;-74
2021/03/12 12:43:56;;;;;;;2.93;1.20;;;;;;;3.84;90.84;98572.63;6095344;29;20220;-73
2021/03/12 12:46:59;;;;;;;0.90;0.90;;;;;;;3.83;91.69;98564.78;6095252;29;20419;-73
2021/03/12 12:50:02;;;;;;;1.10;1.10;;;;;;;3.92;91.60;98579.59;6096513;29;20193;-73
2021/03/12 12:53:12;;;;;;;1.00;1.00;;;;;;;3.87;91.47;98576.75;6096324;29;20193;-74
2021/03/12 12:56:16;;;;;;;2.10;1.30;;;;;;;3.88;91.02;98589.19;6096024;29;20209;-73
2021/03/12 12:59:19;;;;;;;1.80;1.13;;;;;;;3.81;90.68;98600.06;6096285;29;20193;-73
2021/03/12 13:02:22;;;;;;;1.00;1.00;;;;;;;3.92;90.45;98609.25;6094892;29;20497;-73
2021/03/12 13:05:25;;;;;;;1.20;1.20;;;;;;;3.87;90.21;98609.13;6091224;29;20449;-73
2021/03/12 13:08:32;;;;;;;1.20;1.20;;;;;;;4.06;90.35;98602.63;6142935;29;20193;-73
2021/03/12 13:11:36;;;;;;;1.30;1.30;;;;;;;3.91;90.33;98602.19;6142852;29;20275;-73
2021/03/12 13:14:40;;;;;;;1.10;1.10;;;;;;;3.93;90.45;98602.81;6142979;29;20220;-73
2021/03/12 13:17:43;;;;;;;3.30;1.10;;;;;;;4.02;89.96;98604.97;6142753;29;20234;-73
2021/03/12 13:20:49;;;;;;;1.20;1.20;;;;;;;4.00;90.63;98614.34;6142522;29;20199;-73
2021/03/12 13:23:53;;;;;;;1.20;1.20;;;;;;;4.14;90.03;98615.78;6141323;29;20498;-73
2021/03/12 13:26:56;;;;;;;1.30;1.30;;;;;;;4.18;88.34;98617.00;6142791;29;20221;-72
2021/03/12 13:30:00;;;;;;;1.20;1.20;;;;;;;4.20;88.07;98618.41;6141690;29;20537;-72
2021/03/12 13:33:04;;;;;;;1.20;1.20;;;;;;;4.19;88.36;98627.53;6142490;29;20197;-73
2021/03/12 13:36:11;;;;;;;1.37;1.37;;;;;;;4.15;88.58;98628.25;6141361;29;20193;-73
2021/03/12 13:39:17;;;;;;;1.40;1.40;;;;;;;4.25;87.97;98633.91;6141380;29;20223;-73
2021/03/12 13:42:21;;;;;;;1.30;1.30;;;;;;;4.21;89.20;98627.34;6142274;29;20197;-73
2021/03/12 13:45:24;;;;;;;1.10;1.10;;;;;;;4.35;88.41;98628.78;6142369;29;20203;-73
2021/03/12 13:48:28;;;;;;;1.57;1.27;;;;;;;4.29;88.45;98640.47;6142063;29;20192;-72
2021/03/12 13:51:32;;;;;;;1.30;1.30;;;;;;;4.28;88.86;98645.06;6141327;29;20189;-73
2021/03/12 13:54:36;;;;;;;1.60;1.60;;;;;;;4.32;88.51;98656.22;6141897;29;20206;-73
2021/03/12 13:57:40;;;;;;;1.40;1.40;;;;;;;4.38;88.85;98663.41;6141022;29;20503;-72
2021/03/12 14:00:45;;;;;;;1.53;1.50;;;;;;;4.44;87.81;98662.50;6140883;29;20410;-73
2021/03/12 14:04:13;;;;;;;1.57;1.57;;;;;;;4.53;87.45;98663.81;6141738;29;20201;-73
2021/03/12 14:07:53;;;;;;;1.37;1.37;;;;;;;4.59;88.12;98662.91;6142256;29;20240;-72
2021/03/12 14:11:04;;;;;;;1.20;1.20;;;;;;;4.52;88.33;98662.16;6140774;29;20257;-72
2021/03/12 14:14:07;;;;;;;1.30;1.30;;;;;;;4.55;88.22;98671.66;6141960;29;20189;-72
2021/03/12 14:17:12;;;;;;;1.30;1.30;;;;;;;4.52;88.79;98678.34;6141679;29;20194;-72
2021/03/12 14:20:15;;;;;;;1.40;1.30;;;;;;;4.54;88.09;98681.66;6124400;29;20229;-72
2021/03/12 14:23:37;;;;;;;1.40;1.40;;;;;;;4.60;88.14;98686.13;6141925;29;20192;-73
2021/03/12 14:26:42;;;;;;;1.20;1.20;;;;;;;4.62;88.96;98692.16;6140407;29;20247;-72
2021/03/12 14:30:05;;;;;;;1.50;1.50;;;;;;;4.66;88.53;98679.81;6141990;29;20230;-73
2021/03/12 14:33:18;;;;;;;1.70;1.70;;;;;;;4.68;87.66;98688.50;6140666;29;20253;-72
2021/03/12 14:36:22;;;;;;;2.20;2.10;;;;;;;4.74;87.69;98698.38;6141521;29;20266;-73
2021/03/12 14:39:25;;;;;;;3.83;2.80;;;;;;;4.69;86.76;98695.56;6146409;29;20190;-72
2021/03/12 14:42:29;;;;;;;7.03;3.73;;;;;;;4.87;86.75;98705.47;6146238;29;20223;-73
2021/03/12 14:45:33;;;;;;;9.93;4.30;;;;;;;4.74;87.35;98701.09;6145128;29;20503;-73
2021/03/12 14:48:55;;;;;;;3.03;2.83;;;;;;;4.73;87.19;98691.34;6146117;29;20189;-72
2021/03/12 14:51:58;;;;;;;4.40;3.23;;;;;;;4.63;87.50;98701.88;6128005;29;20206;-73
2021/03/12 14:55:02;;;;;;;2.50;2.40;;;;;;;4.54;88.14;98689.78;6144974;29;20191;-73